createdAt,value
2018-07-20T00:00:11.710Z,94996.48
2018-07-20T00:02:40.976Z,94990.23
2018-07-20T00:05:10.206Z,94977.77
2018-07-20T00:07:39.431Z,94986.37
2018-07-20T00:10:08.699Z,94980.33
2018-07-20T00:12:37.914Z,94980.56
2018-07-20T00:15:07.213Z,94979.80
2018-07-20T00:17:36.463Z,94978.79
2018-07-20T00:20:06.193Z,94973.23
2018-07-20T00:22:35.458Z,94967.97
2018-07-20T00:25:04.852Z,94970.33
2018-07-20T00:27:34.080Z,94969.52
2018-07-20T00:30:03.380Z,94968.28
2018-07-20T00:32:32.570Z,94966.19
2018-07-20T00:35:01.830Z,94955.33
2018-07-20T00:37:31.047Z,94952.16
2018-07-20T00:40:00.275Z,94956.23
2018-07-20T00:42:29.529Z,94955.45
2018-07-20T00:44:58.759Z,94950.64
2018-07-20T00:47:28.008Z,94949.94
2018-07-20T00:49:57.249Z,94954.58
2018-07-20T00:52:26.495Z,94955.37
2018-07-20T00:54:55.723Z,94951.70
2018-07-20T00:57:24.974Z,94948.33
2018-07-20T00:59:55.161Z,94947.69
2018-07-20T01:02:24.404Z,94942.16
2018-07-20T01:04:53.615Z,94935.20
2018-07-20T01:07:22.924Z,94933.23
2018-07-20T01:09:52.170Z,94931.67
2018-07-20T01:12:21.442Z,94935.53
2018-07-20T01:14:50.672Z,94930.35
2018-07-20T01:17:19.918Z,94926.48
2018-07-20T01:19:49.122Z,94926.86
2018-07-20T01:22:18.375Z,94924.80
2018-07-20T01:24:47.653Z,94929.73
2018-07-20T01:27:16.973Z,94923.20
2018-07-20T01:29:46.195Z,94924.19
2018-07-20T01:32:15.453Z,94923.32
2018-07-20T01:34:44.717Z,94926.13
2018-07-20T01:37:13.918Z,94933.03
2018-07-20T01:39:43.146Z,94925.25
2018-07-20T01:42:12.638Z,94925.30
2018-07-20T01:44:41.850Z,94931.54
2018-07-20T01:47:11.072Z,94927.80
2018-07-20T01:49:40.334Z,94926.58
2018-07-20T01:52:09.629Z,94931.28
2018-07-20T01:54:38.934Z,94924.23
2018-07-20T01:57:08.161Z,94923.28
2018-07-20T01:59:37.415Z,94925.91
2018-07-20T02:02:06.678Z,94916.32
2018-07-20T02:04:35.902Z,94912.87
2018-07-20T02:07:05.130Z,94910.60
2018-07-20T02:09:34.395Z,94911.61
2018-07-20T02:12:03.638Z,94910.60
2018-07-20T02:14:32.877Z,94915.80
2018-07-20T02:17:02.099Z,94909.73
2018-07-20T02:19:31.355Z,94911.42
2018-07-20T02:22:00.619Z,94908.80
2018-07-20T02:24:31.118Z,94907.75
2018-07-20T02:27:00.355Z,94908.31
2018-07-20T02:29:29.627Z,94910.81
2018-07-20T02:31:58.855Z,94905.81
2018-07-20T02:34:28.092Z,94910.45
2018-07-20T02:36:57.346Z,94909.27
2018-07-20T02:39:26.600Z,94905.48
2018-07-20T02:41:55.838Z,94903.19
2018-07-20T02:44:25.053Z,94899.41
2018-07-20T02:46:54.328Z,94897.50
2018-07-20T02:49:23.561Z,94902.46
2018-07-20T02:51:52.818Z,94897.01
2018-07-20T02:54:22.084Z,94898.39
2018-07-20T02:56:51.303Z,94893.03
2018-07-20T02:59:20.531Z,94893.27
2018-07-20T03:01:49.771Z,94895.92
2018-07-20T03:04:19.097Z,94893.98
2018-07-20T03:06:48.327Z,94900.52
2018-07-20T03:09:17.578Z,94897.34
2018-07-20T03:11:46.937Z,94894.56
2018-07-20T03:14:16.168Z,94895.64
2018-07-20T03:16:45.458Z,94897.09
2018-07-20T03:19:14.694Z,94898.73
2018-07-20T03:21:43.941Z,94899.41
2018-07-20T03:24:13.255Z,94894.73
2018-07-20T03:26:42.469Z,94898.91
2018-07-20T03:29:11.698Z,94900.36
2018-07-20T03:31:40.935Z,94898.27
2018-07-20T03:34:10.168Z,94896.22
2018-07-20T03:36:40.666Z,94894.93
2018-07-20T03:39:10.580Z,94899.72
2018-07-20T03:41:39.833Z,94898.27
2018-07-20T03:44:09.328Z,94896.66
2018-07-20T03:46:38.586Z,94891.34
2018-07-20T03:49:08.816Z,94892.23
2018-07-20T03:51:38.031Z,94888.84
2018-07-20T03:54:07.302Z,94899.56
2018-07-20T03:56:36.582Z,94891.45
2018-07-20T03:59:05.863Z,94890.86
2018-07-20T04:01:35.107Z,94891.72
2018-07-20T04:04:04.437Z,94896.78
2018-07-20T04:06:33.660Z,94899.83
2018-07-20T04:09:02.925Z,94894.37
2018-07-20T04:11:32.207Z,94897.56
2018-07-20T04:14:01.438Z,94896.25
2018-07-20T04:16:30.670Z,94896.14
2018-07-20T04:18:59.919Z,94892.89
2018-07-20T04:21:29.196Z,94891.38
2018-07-20T04:23:58.414Z,94893.07
2018-07-20T04:26:27.690Z,94890.03
2018-07-20T04:28:56.910Z,94890.39
2018-07-20T04:31:26.130Z,94893.92
2018-07-20T04:33:55.346Z,94902.84
2018-07-20T04:36:24.604Z,94899.02
2018-07-20T04:38:53.795Z,94892.30
2018-07-20T04:41:23.066Z,94890.17
2018-07-20T04:43:52.466Z,94892.70
2018-07-20T04:46:21.688Z,94892.42
2018-07-20T04:48:50.949Z,94881.89
2018-07-20T04:51:20.174Z,94876.89
2018-07-20T04:53:49.394Z,94883.69
2018-07-20T04:56:18.646Z,94878.69
2018-07-20T04:58:47.857Z,94871.11
2018-07-20T05:01:17.191Z,94878.19
2018-07-20T05:03:46.429Z,94873.98
2018-07-20T05:06:15.722Z,94870.94
2018-07-20T05:08:44.963Z,94875.62
2018-07-20T05:11:14.198Z,94873.57
2018-07-20T05:13:44.690Z,94870.58
2018-07-20T05:16:13.955Z,94872.94
2018-07-20T05:18:43.181Z,94868.44
2018-07-20T05:21:12.450Z,94874.58
2018-07-20T05:23:41.702Z,94866.38
2018-07-20T05:26:10.921Z,94868.73
2018-07-20T05:28:41.220Z,94875.48
2018-07-20T05:31:10.510Z,94864.27
2018-07-20T05:33:39.731Z,94859.32
2018-07-20T05:36:08.988Z,94864.69
2018-07-20T05:38:38.226Z,94861.95
2018-07-20T05:41:07.575Z,94865.50
2018-07-20T05:43:36.794Z,94863.17
2018-07-20T05:46:06.015Z,94863.68
2018-07-20T05:48:35.287Z,94855.26
2018-07-20T05:51:04.528Z,94858.58
2018-07-20T05:53:33.777Z,94860.26
2018-07-20T05:56:03.022Z,94855.58
2018-07-20T05:58:32.409Z,94853.27
2018-07-20T06:01:02.530Z,94857.53
2018-07-20T06:03:31.894Z,94850.11
2018-07-20T06:06:01.142Z,94852.50
2018-07-20T06:08:30.370Z,94850.61
2018-07-20T06:10:59.607Z,94847.70
2018-07-20T06:13:28.850Z,94854.23
2018-07-20T06:15:58.094Z,94852.94
2018-07-20T06:18:27.337Z,94860.41
2018-07-20T06:20:56.644Z,94855.47
2018-07-20T06:23:25.900Z,94852.34
2018-07-20T06:25:55.109Z,94855.08
2018-07-20T06:28:24.342Z,94850.45
2018-07-20T06:30:53.587Z,94853.16
2018-07-20T06:33:22.845Z,94852.44
2018-07-20T06:35:52.102Z,94842.19
2018-07-20T06:38:21.326Z,94844.84
2018-07-20T06:40:50.647Z,94844.55
2018-07-20T06:43:20.069Z,94845.45
2018-07-20T06:45:49.487Z,94847.05
2018-07-20T06:48:18.703Z,94852.11
2018-07-20T06:50:48.102Z,94850.22
2018-07-20T06:53:17.338Z,94850.73
2018-07-20T06:55:46.639Z,94849.87
2018-07-20T06:58:15.881Z,94840.34
2018-07-20T07:00:45.115Z,94846.55
2018-07-20T07:03:14.362Z,94842.18
2018-07-20T07:05:43.626Z,94846.25
2018-07-20T07:08:12.870Z,94856.20
2018-07-20T07:10:42.077Z,94848.87
2018-07-20T07:13:11.348Z,94849.97
2018-07-20T07:15:40.583Z,94857.50
2018-07-20T07:18:09.834Z,94848.19
2018-07-20T07:20:39.138Z,94853.23
2018-07-20T07:23:08.339Z,94849.57
2018-07-20T07:25:38.846Z,94845.22
2018-07-20T07:28:08.080Z,94845.50
2018-07-20T07:30:37.360Z,94847.77
2018-07-20T07:33:06.687Z,94842.99
2018-07-20T07:35:35.923Z,94843.31
2018-07-20T07:38:05.138Z,94844.40
2018-07-20T07:40:34.383Z,94838.36
2018-07-20T07:43:03.599Z,94835.55
2018-07-20T07:45:32.830Z,94836.45
2018-07-20T07:48:02.071Z,94839.41
2018-07-20T07:50:31.310Z,94832.50
2018-07-20T07:53:00.554Z,94836.66
2018-07-20T07:55:29.816Z,94834.75
2018-07-20T07:57:59.077Z,94831.98
2018-07-20T08:00:28.281Z,94825.77
2018-07-20T08:02:57.598Z,94825.27
2018-07-20T08:05:26.918Z,94823.93
2018-07-20T08:07:56.183Z,94817.28
2018-07-20T08:10:25.488Z,94820.06
2018-07-20T08:12:54.602Z,94815.25
2018-07-20T08:15:23.830Z,94819.53
2018-07-20T08:17:53.100Z,94812.84
2018-07-20T08:20:22.358Z,94811.91
2018-07-20T08:22:51.642Z,94807.84
2018-07-20T08:25:20.876Z,94806.26
2018-07-20T08:27:50.114Z,94806.42
2018-07-20T08:30:19.394Z,94800.08
2018-07-20T08:32:48.668Z,94808.29
2018-07-20T08:35:17.878Z,94804.07
2018-07-20T08:37:48.354Z,94803.30
2018-07-20T08:40:17.592Z,94808.04
2018-07-20T08:42:46.839Z,94801.38
2018-07-20T08:45:16.062Z,94804.45
2018-07-20T08:47:45.284Z,94801.61
2018-07-20T08:50:14.498Z,94797.55
2018-07-20T08:52:43.790Z,94799.27
2018-07-20T08:55:13.046Z,94802.94
2018-07-20T08:57:42.283Z,94801.55
2018-07-20T09:00:11.507Z,94801.23
2018-07-20T09:02:40.915Z,94803.27
2018-07-20T09:05:10.168Z,94802.56
2018-07-20T09:07:39.357Z,94796.05
2018-07-20T09:10:08.601Z,94797.34
2018-07-20T09:12:37.894Z,94796.44
2018-07-20T09:15:07.165Z,94796.09
2018-07-20T09:17:36.373Z,94793.37
2018-07-20T09:20:05.897Z,94800.00
2018-07-20T09:22:35.204Z,94794.45
2018-07-20T09:25:04.452Z,94798.34
2018-07-20T09:27:33.694Z,94805.30
2018-07-20T09:30:02.972Z,94803.17
2018-07-20T09:32:32.235Z,94800.09
2018-07-20T09:35:01.484Z,94797.98
2018-07-20T09:37:30.730Z,94800.66
2018-07-20T09:40:00.003Z,94786.77
2018-07-20T09:42:29.227Z,94796.92
2018-07-20T09:44:58.513Z,94801.05
2018-07-20T09:47:27.752Z,94801.41
2018-07-20T09:49:57.089Z,94806.62
2018-07-20T09:52:26.394Z,94796.55
2018-07-20T09:54:55.633Z,94790.98
2018-07-20T09:57:25.278Z,94793.55
2018-07-20T09:59:54.619Z,94795.24
2018-07-20T10:02:24.726Z,94795.98
2018-07-20T10:04:54.322Z,94798.81
2018-07-20T10:07:23.568Z,94792.88
2018-07-20T10:09:52.787Z,94792.78
2018-07-20T10:12:22.051Z,94791.92
2018-07-20T10:14:51.312Z,94785.06
2018-07-20T10:17:20.525Z,94790.41
2018-07-20T10:19:49.755Z,94782.50
2018-07-20T10:22:19.020Z,94777.63
2018-07-20T10:24:48.254Z,94772.09
2018-07-20T10:27:17.502Z,94766.10
2018-07-20T10:29:46.793Z,94772.37
2018-07-20T10:32:16.044Z,94761.71
2018-07-20T10:34:45.529Z,94774.81
2018-07-20T10:37:14.878Z,94758.66
2018-07-20T10:39:44.150Z,94759.23
2018-07-20T10:42:13.365Z,94759.53
2018-07-20T10:44:42.614Z,94755.91
2018-07-20T10:47:11.884Z,94745.43
2018-07-20T10:49:41.143Z,94747.92
2018-07-20T10:52:10.447Z,94741.06
2018-07-20T10:54:39.654Z,94739.84
2018-07-20T10:57:09.518Z,94744.45
2018-07-20T10:59:38.755Z,94734.55
2018-07-20T11:02:07.981Z,94738.66
2018-07-20T11:04:37.251Z,94737.80
2018-07-20T11:07:06.548Z,94729.16
2018-07-20T11:09:35.845Z,94726.69
2018-07-20T11:12:05.070Z,94723.89
2018-07-20T11:14:34.309Z,94719.36
2018-07-20T11:17:03.530Z,94720.27
2018-07-20T11:19:32.871Z,94713.71
2018-07-20T11:22:02.147Z,94714.52
2018-07-20T11:24:31.430Z,94706.60
2018-07-20T11:27:00.994Z,94709.55
2018-07-20T11:29:30.235Z,94703.69
2018-07-20T11:31:59.626Z,94700.66
2018-07-20T11:34:28.889Z,94700.00
2018-07-20T11:36:58.189Z,94693.24
2018-07-20T11:39:27.460Z,94696.03
2018-07-20T11:41:56.754Z,94693.76
2018-07-20T11:44:25.967Z,94693.44
2018-07-20T11:46:55.255Z,94691.19
2018-07-20T11:49:24.536Z,94697.48
2018-07-20T11:51:54.508Z,94690.17
2018-07-20T11:54:23.790Z,94690.60
2018-07-20T11:56:53.042Z,94687.11
2018-07-20T11:59:22.283Z,94688.47
2018-07-20T12:01:51.556Z,94692.59
2018-07-20T12:04:20.776Z,94687.58
2018-07-20T12:06:50.094Z,94687.55
2018-07-20T12:09:19.410Z,94688.84
2018-07-20T12:11:48.646Z,94684.95
2018-07-20T12:14:17.902Z,94681.03
2018-07-20T12:16:47.146Z,94676.51
2018-07-20T12:19:16.396Z,94677.28
2018-07-20T12:21:45.622Z,94679.91
2018-07-20T12:24:14.852Z,94679.97
2018-07-20T12:26:44.090Z,94680.87
2018-07-20T12:29:13.334Z,94683.25
2018-07-20T12:31:42.560Z,94678.21
2018-07-20T12:34:11.842Z,94680.17
2018-07-20T12:36:41.098Z,94683.49
2018-07-20T12:39:11.510Z,94686.88
2018-07-20T12:41:41.581Z,94682.03
2018-07-20T12:44:11.068Z,94677.75
2018-07-20T12:46:40.961Z,94677.65
2018-07-20T12:49:10.146Z,94662.64
2018-07-20T12:51:39.418Z,94668.63
2018-07-20T12:54:08.651Z,94658.02
2018-07-20T12:56:52.173Z,94657.93
2018-07-20T12:59:21.519Z,94646.55
2018-07-20T13:01:50.763Z,94653.25
2018-07-20T13:04:20.044Z,94650.94
2018-07-20T13:06:49.283Z,94651.12
2018-07-20T13:09:18.522Z,94652.87
2018-07-20T13:11:47.835Z,94649.77
2018-07-20T13:14:17.069Z,94649.31
2018-07-20T13:16:46.430Z,94656.93
2018-07-20T13:19:15.736Z,94651.97
2018-07-20T13:21:46.122Z,94648.05
2018-07-20T13:24:15.364Z,94645.70
2018-07-20T13:26:44.611Z,94639.73
2018-07-20T13:29:15.746Z,94635.03
2018-07-20T13:31:45.082Z,94637.81
2018-07-20T13:34:14.315Z,94639.05
2018-07-20T13:36:43.576Z,94640.34
2018-07-20T13:39:12.819Z,94638.22
2018-07-20T13:41:42.199Z,94639.73
2018-07-20T13:44:11.463Z,94633.01
2018-07-20T13:46:40.715Z,94640.64
2018-07-20T13:49:09.959Z,94630.81
2018-07-20T13:51:39.186Z,94623.09
2018-07-20T13:54:08.775Z,94615.75
2018-07-20T13:56:38.043Z,94618.81
2018-07-20T13:59:07.271Z,94621.25
2018-07-20T14:01:36.615Z,94615.64
2018-07-20T14:04:05.947Z,94612.63
2018-07-20T14:06:35.187Z,94612.68
2018-07-20T14:09:06.128Z,94610.75
2018-07-20T14:11:36.675Z,94608.33
2018-07-20T14:14:05.929Z,94604.59
2018-07-20T14:16:35.227Z,94599.65
2018-07-20T14:19:04.435Z,94604.19
2018-07-20T14:21:33.710Z,94599.08
2018-07-20T14:24:02.975Z,94599.44
2018-07-20T14:26:32.238Z,94601.41
2018-07-20T14:29:01.411Z,94596.36
2018-07-20T14:31:30.666Z,94595.91
2018-07-20T14:33:59.887Z,94597.58
2018-07-20T14:36:29.116Z,94590.95
2018-07-20T14:38:58.471Z,94592.27
2018-07-20T14:41:27.709Z,94594.50
2018-07-20T14:43:57.011Z,94593.39
2018-07-20T14:46:26.244Z,94593.04
2018-07-20T14:48:55.515Z,94584.21
2018-07-20T14:51:24.841Z,94593.78
2018-07-20T14:53:54.059Z,94588.58
2018-07-20T14:56:23.302Z,94589.30
2018-07-20T14:58:52.579Z,94582.56
2018-07-20T15:01:21.895Z,94581.63
2018-07-20T15:03:51.170Z,94577.91
2018-07-20T15:06:20.423Z,94581.92
2018-07-20T15:08:49.655Z,94573.31
2018-07-20T15:11:18.926Z,94574.94
2018-07-20T15:13:48.184Z,94576.83
2018-07-20T15:16:17.438Z,94571.91
2018-07-20T15:18:46.685Z,94570.80
2018-07-20T15:21:16.015Z,94577.99
2018-07-20T15:23:45.235Z,94575.53
2018-07-20T15:26:14.559Z,94569.17
2018-07-20T15:28:43.810Z,94564.33
2018-07-20T15:31:13.063Z,94554.07
2018-07-20T15:33:42.325Z,94557.49
2018-07-20T15:36:11.584Z,94554.88
2018-07-20T15:38:40.907Z,94565.09
2018-07-20T15:41:10.286Z,94563.38
2018-07-20T15:43:40.713Z,94569.17
2018-07-20T15:46:13.340Z,94571.56
2018-07-20T15:48:42.771Z,94574.50
2018-07-20T15:51:12.006Z,94566.84
2018-07-20T15:53:41.334Z,94563.48
2018-07-20T15:56:10.503Z,94563.45
2018-07-20T15:58:39.771Z,94561.89
2018-07-20T16:01:09.094Z,94573.14
2018-07-20T16:03:38.351Z,94577.83
2018-07-20T16:06:07.600Z,94579.49
2018-07-20T16:08:37.105Z,94567.83
2018-07-20T16:11:06.370Z,94567.27
2018-07-20T16:13:35.606Z,94565.84
2018-07-20T16:16:04.936Z,94573.53
2018-07-20T16:18:34.174Z,94567.68
2018-07-20T16:21:03.416Z,94572.34
2018-07-20T16:23:32.675Z,94570.11
2018-07-20T16:26:02.040Z,94571.09
2018-07-20T16:28:31.211Z,94577.91
2018-07-20T16:31:00.525Z,94571.30
2018-07-20T16:33:29.770Z,94576.20
2018-07-20T16:35:59.098Z,94568.42
2018-07-20T16:38:28.331Z,94565.48
2018-07-20T16:40:57.562Z,94567.64
2018-07-20T16:43:26.852Z,94566.40
2018-07-20T16:45:56.189Z,94575.73
2018-07-20T16:48:25.414Z,94572.33
2018-07-20T16:50:54.692Z,94568.99
2018-07-20T16:53:23.884Z,94566.33
2018-07-20T16:55:53.250Z,94574.99
2018-07-20T16:58:22.783Z,94578.05
2018-07-20T17:00:52.195Z,94581.23
2018-07-20T17:03:21.560Z,94578.63
2018-07-20T17:05:50.794Z,94577.89
2018-07-20T17:08:20.176Z,94587.48
2018-07-20T17:10:49.454Z,94584.39
2018-07-20T17:13:19.672Z,94582.29
2018-07-20T17:15:48.928Z,94587.41
2018-07-20T17:18:18.158Z,94585.52
2018-07-20T17:20:47.451Z,94583.83
2018-07-20T17:23:16.724Z,94580.41
2018-07-20T17:25:46.158Z,94582.29
2018-07-20T17:28:15.451Z,94582.33
2018-07-20T17:30:44.654Z,94584.29
2018-07-20T17:33:13.896Z,94584.13
2018-07-20T17:35:43.173Z,94586.35
2018-07-20T17:38:12.375Z,94589.92
2018-07-20T17:40:41.619Z,94589.72
2018-07-20T17:43:10.922Z,94589.34
2018-07-20T17:45:40.203Z,94587.84
2018-07-20T17:48:09.474Z,94580.67
2018-07-20T17:50:38.657Z,94584.31
2018-07-20T17:53:07.934Z,94573.91
2018-07-20T17:55:37.199Z,94588.97
2018-07-20T17:58:06.556Z,94583.21
2018-07-20T18:00:35.958Z,94582.64
2018-07-20T18:03:05.306Z,94585.38
2018-07-20T18:05:34.558Z,94578.88
2018-07-20T18:08:03.792Z,94585.48
2018-07-20T18:10:33.086Z,94582.39
2018-07-20T18:13:02.311Z,94582.37
2018-07-20T18:15:31.608Z,94576.44
2018-07-20T18:18:00.799Z,94581.34
2018-07-20T18:20:30.066Z,94574.33
2018-07-20T18:22:59.274Z,94572.25
2018-07-20T18:25:28.514Z,94573.08
2018-07-20T18:27:57.779Z,94575.17
2018-07-20T18:30:27.038Z,94578.70
2018-07-20T18:32:56.282Z,94584.64
2018-07-20T18:35:25.602Z,94576.60
2018-07-20T18:37:54.835Z,94590.27
2018-07-20T18:40:24.098Z,94593.52
2018-07-20T18:42:53.398Z,94594.59
2018-07-20T18:45:22.643Z,94587.89
2018-07-20T18:47:51.920Z,94602.66
2018-07-20T18:50:21.180Z,94603.73
2018-07-20T18:52:50.406Z,94613.14
2018-07-20T18:55:19.682Z,94597.84
2018-07-20T18:57:48.934Z,94602.41
2018-07-20T19:00:18.194Z,94601.55
2018-07-20T19:02:47.434Z,94600.98
2018-07-20T19:05:16.703Z,94602.60
2018-07-20T19:10:14.255Z,94604.19
2018-07-20T19:12:43.478Z,94599.84
2018-07-20T19:15:12.843Z,94599.02
2018-07-20T19:17:41.965Z,94605.67
2018-07-20T19:20:11.220Z,94602.47
2018-07-20T19:22:40.459Z,94594.95
2018-07-20T19:25:09.763Z,94600.52
2018-07-20T19:27:39.003Z,94601.30
2018-07-20T19:30:08.267Z,94601.52
2018-07-20T19:32:37.553Z,94604.19
2018-07-20T19:35:06.863Z,94604.44
2018-07-20T19:37:36.202Z,94603.33
2018-07-20T19:40:05.477Z,94610.89
2018-07-20T19:42:34.767Z,94609.80
2018-07-20T19:45:04.031Z,94625.03
2018-07-20T19:47:33.283Z,94627.11
2018-07-20T19:50:02.554Z,94626.19
2018-07-20T19:52:31.882Z,94624.03
2018-07-20T19:55:01.143Z,94619.46
2018-07-20T19:57:30.414Z,94624.02
2018-07-20T19:59:59.649Z,94629.48
2018-07-20T20:02:28.914Z,94629.28
2018-07-20T20:04:58.144Z,94637.17
2018-07-20T20:07:27.354Z,94638.38
2018-07-20T20:09:56.614Z,94641.55
2018-07-20T20:12:25.874Z,94643.71
2018-07-20T20:14:55.142Z,94647.07
2018-07-20T20:17:24.386Z,94657.48
2018-07-20T20:19:53.638Z,94667.26
2018-07-20T20:22:22.875Z,94664.03
2018-07-20T20:24:52.150Z,94659.83
2018-07-20T20:27:21.391Z,94655.63
2018-07-20T20:29:50.662Z,94659.48
2018-07-20T20:32:19.885Z,94657.95
2018-07-20T20:34:49.126Z,94663.58
2018-07-20T20:37:18.357Z,94666.06
2018-07-20T20:39:47.606Z,94666.04
2018-07-20T20:42:16.817Z,94667.66
2018-07-20T20:44:46.111Z,94677.66
2018-07-20T20:47:15.450Z,94680.41
2018-07-20T20:49:45.922Z,94695.58
2018-07-20T20:52:15.219Z,94728.13
2018-07-20T20:54:44.466Z,94719.39
2018-07-20T20:57:13.766Z,94716.80
2018-07-20T20:59:43.036Z,94704.37
2018-07-20T21:02:12.274Z,94702.41
2018-07-20T21:04:41.581Z,94697.98
2018-07-20T21:07:10.870Z,94716.43
2018-07-20T21:09:40.154Z,94718.14
2018-07-20T21:12:09.812Z,94733.20
2018-07-20T21:14:38.916Z,94732.76
2018-07-20T21:17:08.215Z,94732.53
2018-07-20T21:19:37.484Z,94735.88
2018-07-20T21:22:06.718Z,94734.16
2018-07-20T21:24:35.962Z,94745.20
2018-07-20T21:27:05.190Z,94743.39
2018-07-20T21:29:34.440Z,94752.20
2018-07-20T21:32:03.694Z,94761.16
2018-07-20T21:34:32.948Z,94754.28
2018-07-20T21:37:02.173Z,94743.53
2018-07-20T21:39:31.405Z,94747.06
2018-07-20T21:42:00.694Z,94745.27
2018-07-20T21:44:30.007Z,94746.77
2018-07-20T21:46:59.276Z,94749.62
2018-07-20T21:49:29.744Z,94755.16
2018-07-20T21:52:05.646Z,94766.96
2018-07-20T21:54:34.915Z,94764.31
2018-07-20T21:57:04.170Z,94768.85
2018-07-20T21:59:33.562Z,94767.38
2018-07-20T22:02:02.797Z,94767.13
2018-07-20T22:04:32.978Z,94769.27
2018-07-20T22:07:02.253Z,94765.34
2018-07-20T22:09:31.520Z,94766.25
2018-07-20T22:12:00.799Z,94750.30
2018-07-20T22:14:30.011Z,94759.13
2018-07-20T22:16:59.266Z,94754.98
2018-07-20T22:19:28.476Z,94754.08
2018-07-20T22:21:57.729Z,94749.42
2018-07-20T22:24:26.926Z,94745.17
2018-07-20T22:26:56.197Z,94740.06
2018-07-20T22:29:25.410Z,94734.59
2018-07-20T22:31:54.709Z,94724.30
2018-07-20T22:34:23.919Z,94724.81
2018-07-20T22:36:53.116Z,94719.22
2018-07-20T22:39:22.354Z,94711.48
2018-07-20T22:41:51.592Z,94713.50
2018-07-20T22:44:20.962Z,94708.23
2018-07-20T22:46:50.216Z,94700.95
2018-07-20T22:49:19.476Z,94701.25
2018-07-20T22:51:48.716Z,94692.81
2018-07-20T22:54:17.954Z,94680.58
2018-07-20T22:56:47.439Z,94681.23
2018-07-20T22:59:16.666Z,94672.34
2018-07-20T23:01:45.882Z,94669.77
2018-07-20T23:04:15.174Z,94667.17
2018-07-20T23:06:44.399Z,94661.29
2018-07-20T23:09:13.655Z,94657.00
2018-07-20T23:11:42.866Z,94655.07
2018-07-20T23:14:12.107Z,94657.65
2018-07-20T23:16:41.380Z,94657.51
2018-07-20T23:19:10.599Z,94657.51
2018-07-20T23:21:39.886Z,94656.80
2018-07-20T23:24:09.272Z,94647.34
2018-07-20T23:26:38.548Z,94652.20
2018-07-20T23:29:08.845Z,94658.35
2018-07-20T23:31:38.062Z,94658.59
2018-07-20T23:34:07.616Z,94659.17
2018-07-20T23:36:36.891Z,94650.83
2018-07-20T23:39:08.594Z,94649.51
2018-07-20T23:41:37.912Z,94647.09
2018-07-20T23:44:07.463Z,94649.63
2018-07-20T23:46:36.687Z,94643.09
2018-07-20T23:49:06.004Z,94637.42
2018-07-20T23:51:35.226Z,94633.38
2018-07-20T23:54:04.447Z,94634.20
2018-07-20T23:56:33.736Z,94623.52
2018-07-20T23:59:03.016Z,94624.17
